MUC | München Airways

 METAR UND TAF INFORMATION

METAR FOR LEAM
ADDS - METARS form results

(0126 UTC 24 January 2019)
Data provider http://aviationweather.gov/metar/data/
 
METAR text: LEAM 240100Z AUTO 25003KT 220V290 9999 NCD 13/05 Q1007
Conditions at: LEAM (ALMERIA AIRPORT , ES) observed 0100 UTC 24 January 2019
Temperature: 13.0°C (55°F)
Dewpoint: 5.0°C (41°F) [RH = 58%]
Pressure (altimeter): 29.73 inches Hg (1007.0 mb)
Winds: from the WSW (250 degrees) at 3 MPH (3 knots; 1.5 m/s)
Visibility: 6 or more miles (10+ km)
Ceiling: at least 12,000 feet AGL
Clouds: sky clear below 12,000 feet AGL
Weather: no significant weather observed at this time

METAR text: LEAM 240030Z AUTO 29004KT 260V320 9999 NCD 15/05 Q1007
Conditions at: LEAM (ALMERIA AIRPORT , ES) observed 0030 UTC 24 January 2019
Temperature: 15.0°C (59°F)
Dewpoint: 5.0°C (41°F) [RH = 51%]
Pressure (altimeter): 29.73 inches Hg (1007.0 mb)
Winds: from the WNW (290 degrees) at 5 MPH (4 knots; 2.1 m/s)
Visibility: 6 or more miles (10+ km)
Ceiling: at least 12,000 feet AGL
Clouds: sky clear below 12,000 feet AGL
Weather: no significant weather observed at this time

Forecast for: LEAM (ALMERIA AIRPORT , ES)
Text: TAF LEAM 232000Z 2321/2421 30009KT 9999 SCT030 TX18/2412Z TN10/2407Z
Forecast period: 2100 UTC 23 January 2019 to 0900 UTC 24 January 2019
Forecast type: FROM: standard forecast or significant change
Winds: from the WNW (300 degrees) at 10 MPH (9 knots; 4.6 m/s)
Visibility: 6 or more miles 10+ km)
Ceiling: at least 12,000 feet AGL
Clouds: scattered clouds at 3000 feet AGL
Weather: no significant weather forecast for this period
Text: BECMG 2409/2411 23010KT
Forecast period: 0900 to 2100 UTC 24 January 2019
Forecast type: BECOMING: Conditions expected to become as follows by 1100 UTC 24 January 2019
Winds: from the SW (230 degrees) at 12 MPH (10 knots; 5.1 m/s)
Visibility: 6 or more miles 10+ km)
Ceiling: at least 12,000 feet AGL
Clouds: scattered clouds at 3000 feet AGL
Weather: no significant weather forecast for this period

 FLUGHAFENKARTE

 RUNWAY INFORMATION
Runway 08 Runway length 10499 ft Runway width 148 ft
Runway elevation 26 ft Runway displaced threshold 492 ft Runway heading 73
Runway 26 Runway length 10499 ft Runway width 148 ft
Runway elevation 70 ft Runway displaced threshold 0 ft Runway heading 253

 AIRPORT FREQUENCIES
Type APP Name APP Frequency 118.35 MHZ
Type GND Name GND Frequency 121.7 MHZ
Type TWR Name TWR Frequency 118.35 MHZ

 AIRPORT NEAR NAVIGATION AIDS
Type NDB Name Almeria Frequency 284 KHZ
Type NDB Name Almeria Frequency 310 KHZ
Type VOR-DME Name Almeria Frequency 114100 KHZ